LFPG/CDG METAR and TAF weather

Enter ICAO airport designator
Station Type Date Time Source
LFPG METAR 2020/09/28 07:30 UTC NOAA

LFPG 280730Z 32010KT 9999 -DZ BKN007 12/12 Q1011 TEMPO 3000 DZ


Station Type Date Time Source
LFPG Decoded METAR 2020/09/28 07:30 UTC NOAA

Paris-Aeroport Charles De Gaulle, France (LFPG) 49-01N 002-32E 109M
Sep 28, 2020 - 03:30 AM EDT / 2020.09.28 0730 UTC
Wind: from the NW (320 degrees) at 12 MPH (10 KT):0
Visibility: greater than 7 mile(s):0
Sky conditions: mostly cloudy
Weather: light drizzle
Temperature: 53 F (12 C)
Dew Point: 53 F (12 C)
Relative Humidity: 100%
Pressure (altimeter): 29.85 in. Hg (1011 hPa)
ob: LFPG 280730Z 32010KT 9999 -DZ BKN007 12/12 Q1011 TEMPO 3000 DZ
cycle: 7

Station Type Date Time Source
LFPG TAF 2020/09/28 06:22 UTC NOAA

TAF LFPG 280500Z 2806/2912 32010KT 6000 BKN007 TX17/2912Z TN10/2900Z
TEMPO 2806/2811 4000 RADZ PROB40
TEMPO 2806/2811 2000 DZ BKN004
BECMG 2811/2813 BKN016
BECMG 2821/2824 26005KT PROB40
TEMPO 2900/2912 4000 -DZ BR BKN003

Example: see airport list